createdAt,value
2019-02-22T00:00:54.804Z,3.00
2019-02-22T00:03:36.745Z,3.20
2019-02-22T00:06:15.175Z,3.15
2019-02-22T00:08:57.270Z,3.00
2019-02-22T00:11:32.821Z,3.00
2019-02-22T00:14:15.019Z,3.72
2019-02-22T00:16:50.788Z,3.87
2019-02-22T00:19:33.355Z,3.77
2019-02-22T00:22:09.314Z,3.95
2019-02-22T00:24:52.308Z,4.47
2019-02-22T00:27:28.326Z,4.35
2019-02-22T00:30:04.102Z,3.80
2019-02-22T00:32:39.444Z,3.65
2019-02-22T00:35:21.320Z,3.87
2019-02-22T00:38:04.077Z,4.10
2019-02-22T00:40:52.641Z,4.15
2019-02-22T00:43:28.567Z,3.92
2019-02-22T00:46:10.904Z,4.25
2019-02-22T00:48:59.486Z,3.42
2019-02-22T00:51:35.048Z,3.90
2019-02-22T00:54:17.386Z,3.22
2019-02-22T00:57:06.050Z,3.47
2019-02-22T00:59:47.798Z,4.55
2019-02-22T01:02:24.051Z,5.12
2019-02-22T01:05:06.706Z,4.35
2019-02-22T01:07:49.490Z,5.50
2019-02-22T01:10:31.274Z,5.05
2019-02-22T01:13:16.830Z,4.35
2019-02-22T01:15:58.448Z,4.08
2019-02-22T01:18:34.287Z,4.53
2019-02-22T01:21:16.267Z,4.47
2019-02-22T01:23:52.755Z,4.17
2019-02-22T01:26:28.272Z,3.87
2019-02-22T01:29:10.166Z,4.67
2019-02-22T01:31:52.081Z,4.83
2019-02-22T01:34:27.803Z,3.95
2019-02-22T01:37:09.790Z,4.60
2019-02-22T01:39:46.043Z,4.20
2019-02-22T01:42:28.242Z,3.90
2019-02-22T01:45:04.081Z,4.50
2019-02-22T01:47:45.434Z,4.20
2019-02-22T01:50:30.489Z,3.70
2019-02-22T01:53:06.801Z,3.62
2019-02-22T01:55:42.815Z,3.77
2019-02-22T01:58:25.083Z,4.83
2019-02-22T02:01:01.152Z,4.83
2019-02-22T02:03:42.856Z,5.20
2019-02-22T02:06:24.765Z,5.22
2019-02-22T02:09:00.450Z,5.05
2019-02-22T02:11:50.168Z,4.80
2019-02-22T02:14:25.569Z,4.53
2019-02-22T02:17:08.282Z,4.03
2019-02-22T02:19:43.977Z,4.20
2019-02-22T02:22:26.660Z,4.17
2019-02-22T02:25:15.955Z,4.03
2019-02-22T02:27:58.076Z,3.77
2019-02-22T02:30:33.998Z,4.12
2019-02-22T02:33:16.282Z,4.30
2019-02-22T02:35:52.069Z,4.20
2019-02-22T02:38:33.783Z,4.22
2019-02-22T02:41:22.655Z,3.83
2019-02-22T02:44:05.832Z,4.20
2019-02-22T02:46:42.023Z,3.33
2019-02-22T02:49:17.697Z,3.67
2019-02-22T02:52:00.239Z,3.10
2019-02-22T02:54:42.847Z,2.92
2019-02-22T02:57:25.079Z,2.73
2019-02-22T03:00:00.951Z,2.95
2019-02-22T03:02:42.572Z,2.50
2019-02-22T03:05:18.647Z,2.40
2019-02-22T03:08:02.964Z,2.52
2019-02-22T03:10:39.025Z,2.55
2019-02-22T03:13:20.812Z,2.45
2019-02-22T03:15:56.585Z,2.02
2019-02-22T03:18:39.455Z,2.52
2019-02-22T03:21:22.165Z,2.50
2019-02-22T03:24:10.794Z,2.60
2019-02-22T03:26:45.992Z,2.40
2019-02-22T03:29:21.846Z,2.75
2019-02-22T03:32:05.271Z,2.80
2019-02-22T03:34:41.233Z,2.90
2019-02-22T03:37:23.804Z,2.80
2019-02-22T03:39:59.626Z,2.37
2019-02-22T03:42:41.671Z,2.83
2019-02-22T03:45:17.680Z,2.35
2019-02-22T03:48:00.088Z,2.55
2019-02-22T03:50:42.393Z,2.22
2019-02-22T03:53:19.843Z,2.85
2019-02-22T03:55:55.465Z,2.85
2019-02-22T03:58:37.860Z,2.58
2019-02-22T04:01:20.269Z,2.95
2019-02-22T04:03:56.104Z,2.90
2019-02-22T04:06:38.698Z,2.37
2019-02-22T04:09:25.846Z,2.20
2019-02-22T04:12:01.120Z,3.37
2019-02-22T04:14:36.845Z,2.85
2019-02-22T04:17:12.759Z,2.22
2019-02-22T04:19:54.702Z,2.20
2019-02-22T04:22:36.556Z,2.47
2019-02-22T04:25:26.912Z,2.60
2019-02-22T04:28:08.542Z,2.70
2019-02-22T04:30:44.323Z,2.20
2019-02-22T04:33:20.043Z,2.00
2019-02-22T04:36:09.246Z,2.02
2019-02-22T04:38:44.590Z,2.30
2019-02-22T04:41:33.278Z,1.80
2019-02-22T04:44:15.389Z,2.22
2019-02-22T04:47:10.059Z,2.30
2019-02-22T04:49:52.413Z,2.37
2019-02-22T04:52:28.546Z,2.30
2019-02-22T04:55:10.738Z,2.08
2019-02-22T04:57:46.899Z,2.25
2019-02-22T05:00:44.360Z,2.10
2019-02-22T05:03:26.159Z,2.15
2019-02-22T05:06:11.133Z,2.05
2019-02-22T05:09:00.143Z,2.30
2019-02-22T05:11:41.712Z,2.80
2019-02-22T05:14:25.293Z,2.45
2019-02-22T05:17:00.620Z,2.25
2019-02-22T05:19:36.234Z,2.72
2019-02-22T05:22:18.798Z,2.58
2019-02-22T05:25:07.725Z,2.57
2019-02-22T05:27:49.671Z,2.42
2019-02-22T05:30:24.967Z,2.58
2019-02-22T05:33:07.321Z,2.50
2019-02-22T05:35:49.522Z,2.60
2019-02-22T05:38:31.193Z,3.22
2019-02-22T05:41:06.460Z,2.98
2019-02-22T05:43:48.541Z,3.50
2019-02-22T05:46:24.481Z,3.20
2019-02-22T05:49:07.625Z,3.10
2019-02-22T05:51:49.588Z,3.75
2019-02-22T05:54:31.589Z,3.60
2019-02-22T05:57:07.196Z,3.22
2019-02-22T05:59:48.871Z,3.08
2019-02-22T06:02:24.112Z,3.35
2019-02-22T06:05:05.843Z,3.12
2019-02-22T06:07:42.067Z,3.12
2019-02-22T06:10:39.602Z,2.95
2019-02-22T06:13:21.793Z,3.05
2019-02-22T06:16:30.546Z,3.37
2019-02-22T06:19:13.258Z,2.80
2019-02-22T06:22:02.500Z,2.67
2019-02-22T06:24:52.090Z,2.95
2019-02-22T06:27:41.803Z,2.40
2019-02-22T06:30:24.009Z,2.90
2019-02-22T06:32:59.693Z,3.40
2019-02-22T06:35:41.476Z,3.00
2019-02-22T06:38:23.964Z,2.70
2019-02-22T06:41:05.851Z,2.90
2019-02-22T06:43:41.853Z,5.47
2019-02-22T06:46:23.563Z,5.10
2019-02-22T06:48:58.808Z,3.92
2019-02-22T06:51:40.669Z,3.15
2019-02-22T06:54:23.214Z,2.72
2019-02-22T06:57:04.912Z,2.03
2019-02-22T06:59:34.154Z,3.12
2019-02-22T07:02:10.508Z,2.55
2019-02-22T07:05:11.963Z,2.35
2019-02-22T07:07:48.055Z,2.55
2019-02-22T07:10:30.026Z,3.60
2019-02-22T07:13:14.550Z,2.55
2019-02-22T07:15:50.438Z,2.20
2019-02-22T07:18:32.374Z,2.37
2019-02-22T07:21:08.325Z,2.42
2019-02-22T07:23:50.109Z,2.33
2019-02-22T07:26:25.459Z,2.40
2019-02-22T07:29:09.262Z,2.50
2019-02-22T07:31:44.596Z,3.02
2019-02-22T07:34:26.909Z,3.40
2019-02-22T07:37:11.116Z,2.60
2019-02-22T07:40:00.229Z,2.50
2019-02-22T07:42:37.072Z,3.08
2019-02-22T07:45:23.746Z,2.87
2019-02-22T07:47:59.529Z,3.08
2019-02-22T07:50:43.525Z,2.40
2019-02-22T07:53:25.442Z,2.85
2019-02-22T07:56:01.626Z,3.02
2019-02-22T07:58:45.208Z,3.00
2019-02-22T08:04:03.895Z,2.27
2019-02-22T08:06:44.148Z,2.42
2019-02-22T08:09:26.815Z,2.00
2019-02-22T08:12:03.937Z,2.40
2019-02-22T08:15:00.461Z,2.22
2019-02-22T08:17:39.704Z,2.37
2019-02-22T08:20:23.603Z,1.57
2019-02-22T08:22:58.959Z,2.42
2019-02-22T08:25:42.480Z,1.60
2019-02-22T08:30:58.989Z,2.20
2019-02-22T08:33:35.087Z,2.30
2019-02-22T08:36:17.056Z,2.02
2019-02-22T08:38:52.339Z,2.30
2019-02-22T08:41:34.089Z,2.37
2019-02-22T08:44:09.464Z,2.10
2019-02-22T08:46:51.595Z,2.62
2019-02-22T08:49:28.536Z,2.10
2019-02-22T08:52:11.149Z,2.22
2019-02-22T08:54:47.528Z,1.90
2019-02-22T08:57:31.556Z,1.90
2019-02-22T09:00:10.550Z,2.75
2019-02-22T09:02:52.815Z,2.60
2019-02-22T09:05:28.794Z,2.47
2019-02-22T09:08:11.071Z,1.60
2019-02-22T09:10:46.582Z,1.42
2019-02-22T09:13:29.138Z,1.62
2019-02-22T09:16:11.293Z,1.40
2019-02-22T09:19:02.128Z,2.02
2019-02-22T09:21:44.924Z,2.02
2019-02-22T09:24:20.548Z,2.02
2019-02-22T09:27:04.256Z,2.22
2019-02-22T09:29:40.888Z,1.62
2019-02-22T09:32:23.094Z,1.42
2019-02-22T09:34:58.323Z,1.98
2019-02-22T09:37:40.293Z,2.20
2019-02-22T09:40:30.531Z,1.55
2019-02-22T09:43:17.484Z,1.22
2019-02-22T09:45:54.893Z,1.52
2019-02-22T09:48:37.099Z,1.90
2019-02-22T09:51:20.896Z,1.70
2019-02-22T09:54:03.864Z,1.20
2019-02-22T09:56:39.136Z,1.25
2019-02-22T09:59:23.716Z,1.50
2019-02-22T10:02:06.634Z,1.85
2019-02-22T10:04:54.866Z,1.10
2019-02-22T10:07:28.211Z,1.47
2019-02-22T10:10:21.011Z,1.47
2019-02-22T10:12:57.906Z,1.72
2019-02-22T10:15:40.259Z,1.20
2019-02-22T10:18:29.369Z,3.58
2019-02-22T10:21:11.670Z,4.17
2019-02-22T10:23:54.161Z,2.77
2019-02-22T10:26:43.432Z,1.02
2019-02-22T10:29:25.688Z,1.60
2019-02-22T10:32:11.962Z,1.50
2019-02-22T10:34:48.247Z,2.02
2019-02-22T10:37:31.195Z,1.60
2019-02-22T10:40:10.654Z,2.10
2019-02-22T10:42:59.981Z,1.90
2019-02-22T10:45:42.216Z,1.20
2019-02-22T10:48:18.499Z,1.55
2019-02-22T10:51:02.468Z,1.45
2019-02-22T10:53:45.467Z,1.47
2019-02-22T10:56:35.024Z,1.30
2019-02-22T10:59:18.630Z,1.87
2019-02-22T11:04:47.440Z,3.70
2019-02-22T11:07:26.761Z,2.08
2019-02-22T11:10:10.047Z,2.95
2019-02-22T11:15:33.612Z,1.65
2019-02-22T11:18:22.305Z,1.77
2019-02-22T11:21:06.133Z,1.30
2019-02-22T11:23:41.665Z,1.42
2019-02-22T11:26:23.048Z,1.42
2019-02-22T11:29:11.992Z,1.57
2019-02-22T11:31:55.734Z,1.90
2019-02-22T11:34:31.740Z,2.10
2019-02-22T11:37:13.429Z,1.80
2019-02-22T11:39:49.575Z,1.30
2019-02-22T11:42:34.118Z,3.42
2019-02-22T11:45:09.646Z,5.05
2019-02-22T11:47:51.990Z,5.00
2019-02-22T11:50:27.692Z,4.87
2019-02-22T11:53:09.870Z,1.80
2019-02-22T11:55:56.612Z,1.50
2019-02-22T11:58:39.130Z,1.40
2019-02-22T12:01:14.688Z,1.40
2019-02-22T12:03:52.176Z,2.40
2019-02-22T12:06:34.221Z,1.75
2019-02-22T12:09:09.503Z,2.37
2019-02-22T12:11:51.089Z,1.55
2019-02-22T12:14:27.143Z,1.80
2019-02-22T12:17:09.023Z,2.35
2019-02-22T12:19:44.616Z,3.67
2019-02-22T12:22:29.863Z,2.22
2019-02-22T12:25:11.939Z,5.25
2019-02-22T12:27:53.949Z,5.05
2019-02-22T12:30:29.944Z,4.97
2019-02-22T12:33:05.225Z,4.15
2019-02-22T12:35:47.176Z,3.15
2019-02-22T12:38:36.328Z,4.15
2019-02-22T12:41:21.278Z,8.35
2019-02-22T12:43:57.153Z,6.45
2019-02-22T12:46:39.663Z,6.95
2019-02-22T12:49:30.499Z,2.47
2019-02-22T12:52:08.891Z,3.40
2019-02-22T12:54:51.856Z,4.30
2019-02-22T12:57:35.121Z,2.72
2019-02-22T13:00:23.478Z,2.05
2019-02-22T13:03:21.546Z,3.10
2019-02-22T13:06:00.468Z,2.77
2019-02-22T13:08:42.893Z,1.80
2019-02-22T13:11:24.481Z,2.47
2019-02-22T13:14:13.918Z,2.00
2019-02-22T13:16:49.193Z,3.80
2019-02-22T13:19:34.417Z,4.53
2019-02-22T13:22:23.028Z,2.77
2019-02-22T13:24:58.209Z,3.58
2019-02-22T13:27:41.024Z,3.05
2019-02-22T13:30:16.688Z,3.30
2019-02-22T13:32:59.449Z,2.55
2019-02-22T13:35:41.728Z,2.05
2019-02-22T13:38:19.233Z,2.58
2019-02-22T13:40:57.148Z,2.40
2019-02-22T13:43:40.864Z,2.90
2019-02-22T13:46:16.961Z,3.95
2019-02-22T13:48:59.076Z,3.55
2019-02-22T13:51:43.036Z,3.47
2019-02-22T13:54:28.550Z,2.20
2019-02-22T13:57:05.532Z,2.85
2019-02-22T13:59:54.434Z,2.77
2019-02-22T14:02:33.775Z,2.45
2019-02-22T14:05:16.548Z,2.42
2019-02-22T14:08:11.151Z,3.72
2019-02-22T14:10:59.941Z,2.80
2019-02-22T14:13:43.133Z,3.25
2019-02-22T14:16:21.996Z,2.02
2019-02-22T14:19:09.916Z,3.05
2019-02-22T14:21:52.539Z,3.72
2019-02-22T14:24:41.351Z,2.60
2019-02-22T14:27:30.808Z,2.47
2019-02-22T14:30:21.298Z,6.17
2019-02-22T14:33:03.353Z,2.80
2019-02-22T14:35:46.233Z,4.12
2019-02-22T14:38:35.987Z,4.03
2019-02-22T14:41:19.042Z,7.45
2019-02-22T14:44:08.774Z,3.27
2019-02-22T14:46:50.938Z,3.77
2019-02-22T14:49:39.684Z,3.00
2019-02-22T14:52:32.699Z,3.58
2019-02-22T14:55:12.084Z,3.25
2019-02-22T14:57:56.162Z,4.22
2019-02-22T15:00:37.880Z,3.37
2019-02-22T15:03:14.347Z,3.27
2019-02-22T15:05:57.243Z,3.30
2019-02-22T15:08:40.918Z,3.30
2019-02-22T15:11:26.078Z,2.80
2019-02-22T15:14:12.945Z,3.67
2019-02-22T15:17:01.565Z,5.42
2019-02-22T15:19:36.773Z,6.65
2019-02-22T15:22:22.272Z,12.88
2019-02-22T15:24:57.534Z,18.37
2019-02-22T15:27:40.563Z,12.60
2019-02-22T15:30:29.302Z,10.55
2019-02-22T15:33:11.997Z,12.15
2019-02-22T15:35:47.353Z,25.37
2019-02-22T15:38:29.314Z,26.95
2019-02-22T15:41:18.395Z,12.90
2019-02-22T15:44:00.401Z,8.45
2019-02-22T15:46:37.084Z,16.12
2019-02-22T15:49:19.316Z,8.65
2019-02-22T15:51:56.689Z,5.15
2019-02-22T15:54:39.029Z,8.05
2019-02-22T15:57:15.305Z,9.03
2019-02-22T15:59:59.138Z,6.42
2019-02-22T16:02:37.135Z,7.05
2019-02-22T16:05:24.560Z,8.25
2019-02-22T16:08:07.913Z,22.55
2019-02-22T16:10:43.355Z,12.50
2019-02-22T16:13:25.829Z,12.70
2019-02-22T16:16:08.139Z,11.85
2019-02-22T16:18:45.153Z,7.28
2019-02-22T16:21:23.146Z,7.75
2019-02-22T16:24:00.231Z,11.10
2019-02-22T16:26:42.624Z,13.95
2019-02-22T16:29:31.846Z,11.65
2019-02-22T16:32:16.195Z,11.78
2019-02-22T16:34:51.461Z,12.03
2019-02-22T16:37:36.568Z,12.75
2019-02-22T16:40:24.660Z,12.15
2019-02-22T16:43:13.575Z,13.75
2019-02-22T16:46:02.217Z,16.00
2019-02-22T16:48:43.853Z,9.35
2019-02-22T16:51:20.388Z,8.68
2019-02-22T16:54:04.718Z,11.93
2019-02-22T16:56:40.857Z,13.53
2019-02-22T16:59:23.012Z,20.43
2019-02-22T17:01:58.336Z,12.10
2019-02-22T17:04:41.002Z,11.28
2019-02-22T17:07:17.165Z,12.07
2019-02-22T17:10:01.243Z,13.15
2019-02-22T17:12:37.132Z,14.55
2019-02-22T17:15:22.467Z,16.00
2019-02-22T17:18:05.167Z,16.48
2019-02-22T17:20:46.754Z,15.60
2019-02-22T17:23:48.303Z,18.07
2019-02-22T17:26:31.201Z,21.60
2019-02-22T17:29:08.552Z,27.32
2019-02-22T17:31:55.783Z,36.63
2019-02-22T17:34:34.491Z,93.42
2019-02-22T17:37:16.867Z,104.97
2019-02-22T17:39:54.565Z,77.27
2019-02-22T17:42:36.571Z,91.63
2019-02-22T17:45:13.025Z,56.70
2019-02-22T17:47:56.342Z,44.48
2019-02-22T17:50:34.753Z,39.18
2019-02-22T17:53:17.371Z,39.20
2019-02-22T17:55:53.922Z,38.17
2019-02-22T17:58:35.869Z,37.48
2019-02-22T18:01:17.885Z,35.00
2019-02-22T18:04:00.594Z,36.40
2019-02-22T18:06:36.146Z,31.20
2019-02-22T18:09:20.013Z,31.85
2019-02-22T18:11:56.108Z,30.25
2019-02-22T18:14:37.621Z,31.90
2019-02-22T18:17:14.760Z,30.95
2019-02-22T18:20:02.977Z,32.10
2019-02-22T18:22:38.456Z,30.27
2019-02-22T18:25:20.168Z,31.07
2019-02-22T18:27:57.601Z,31.17
2019-02-22T18:30:39.941Z,31.07
2019-02-22T18:33:17.577Z,34.65
2019-02-22T18:36:00.362Z,32.28
2019-02-22T18:38:42.938Z,29.82
2019-02-22T18:41:32.152Z,28.37
2019-02-22T18:44:14.705Z,27.07
2019-02-22T18:47:03.439Z,21.43
2019-02-22T18:49:45.543Z,29.07
2019-02-22T18:52:29.138Z,28.52
2019-02-22T18:55:18.561Z,30.90
2019-02-22T18:57:54.142Z,29.15
2019-02-22T19:00:36.208Z,28.95
2019-02-22T19:03:12.258Z,27.75
2019-02-22T19:05:54.142Z,27.15
2019-02-22T19:08:32.380Z,27.85
2019-02-22T19:11:13.599Z,27.13
2019-02-22T19:13:49.353Z,26.65
2019-02-22T19:16:31.109Z,26.15
2019-02-22T19:19:07.052Z,28.12
2019-02-22T19:21:49.258Z,29.67
2019-02-22T19:24:33.825Z,29.35
2019-02-22T19:27:16.633Z,24.63
2019-02-22T19:29:52.329Z,26.95
2019-02-22T19:32:36.585Z,21.65
2019-02-22T19:35:20.234Z,23.92
2019-02-22T19:38:12.643Z,23.85
2019-02-22T19:40:57.028Z,21.90
2019-02-22T19:43:33.226Z,22.00
2019-02-22T19:46:18.226Z,20.97
2019-02-22T19:48:53.886Z,21.15
2019-02-22T19:51:36.789Z,23.27
2019-02-22T19:54:12.699Z,23.12
2019-02-22T19:56:59.695Z,23.45
2019-02-22T19:59:38.190Z,22.67
2019-02-22T20:02:19.939Z,21.37
2019-02-22T20:05:02.452Z,22.77
2019-02-22T20:07:44.318Z,20.67
2019-02-22T20:10:32.447Z,20.35
2019-02-22T20:13:15.523Z,18.12
2019-02-22T20:16:05.028Z,19.30
2019-02-22T20:18:56.319Z,18.60
2019-02-22T20:21:39.687Z,18.02
2019-02-22T20:24:15.513Z,17.98
2019-02-22T20:27:04.809Z,17.40
2019-02-22T20:29:46.302Z,16.87
2019-02-22T20:32:35.548Z,14.70
2019-02-22T20:35:28.217Z,15.93
2019-02-22T20:38:18.950Z,11.97
2019-02-22T20:41:01.175Z,12.18
2019-02-22T20:43:36.472Z,12.45
2019-02-22T20:46:20.364Z,13.05
2019-02-22T20:49:11.481Z,17.92
2019-02-22T20:51:55.867Z,18.15
2019-02-22T20:54:46.459Z,17.42
2019-02-22T20:57:30.789Z,16.97
2019-02-22T21:00:06.879Z,15.25
2019-02-22T21:02:51.003Z,14.83
2019-02-22T21:05:33.713Z,14.28
2019-02-22T21:08:15.731Z,12.33
2019-02-22T21:10:51.137Z,12.55
2019-02-22T21:13:35.448Z,13.90
2019-02-22T21:16:24.385Z,13.93
2019-02-22T21:19:00.296Z,15.53
2019-02-22T21:21:46.964Z,15.75
2019-02-22T21:24:37.965Z,16.02
2019-02-22T21:27:15.005Z,14.18
2019-02-22T21:29:58.739Z,14.10
2019-02-22T21:32:36.681Z,13.32
2019-02-22T21:35:20.939Z,14.70
2019-02-22T21:38:03.321Z,14.83
2019-02-22T21:40:45.080Z,15.00
2019-02-22T21:43:22.178Z,16.23
2019-02-22T21:46:04.390Z,17.98
2019-02-22T21:48:42.194Z,18.62
2019-02-22T21:51:24.416Z,18.20
2019-02-22T21:54:08.215Z,17.27
2019-02-22T21:56:44.597Z,19.60
2019-02-22T21:59:19.848Z,21.65
2019-02-22T22:02:01.940Z,22.22
2019-02-22T22:05:03.596Z,29.42
2019-02-22T22:07:50.754Z,29.80
2019-02-22T22:10:28.371Z,31.55
2019-02-22T22:13:10.518Z,26.87
2019-02-22T22:15:59.880Z,27.50
2019-02-22T22:18:39.109Z,23.87
2019-02-22T22:21:23.660Z,23.07
2019-02-22T22:24:13.534Z,27.55
2019-02-22T22:27:03.156Z,29.57
2019-02-22T22:29:49.695Z,26.27
2019-02-22T22:32:25.277Z,16.15
2019-02-22T22:35:08.534Z,16.20
2019-02-22T22:37:51.834Z,13.40
2019-02-22T22:40:28.621Z,14.65
2019-02-22T22:43:20.703Z,20.90
2019-02-22T22:46:06.370Z,29.07
2019-02-22T22:48:50.390Z,32.20
2019-02-22T22:51:35.967Z,32.83
2019-02-22T22:54:32.350Z,36.17
2019-02-22T22:57:27.781Z,33.90
2019-02-22T23:00:11.594Z,32.58
2019-02-22T23:02:53.982Z,32.75
2019-02-22T23:05:40.837Z,24.67
2019-02-22T23:10:58.142Z,33.50
2019-02-22T23:13:52.471Z,35.45
2019-02-22T23:16:27.011Z,34.85
2019-02-22T23:21:39.342Z,32.53
2019-02-22T23:24:33.077Z,28.50
2019-02-22T23:29:44.246Z,26.45
2019-02-22T23:32:28.978Z,29.27
2019-02-22T23:35:10.395Z,26.60
2019-02-22T23:37:40.186Z,23.38
2019-02-22T23:40:28.704Z,26.70
2019-02-22T23:43:08.796Z,28.92
2019-02-22T23:48:29.701Z,25.97
2019-02-22T23:51:12.672Z,24.90
2019-02-22T23:54:11.679Z,26.70
2019-02-22T23:56:45.689Z,28.38
2019-02-22T23:59:37.008Z,32.10
